sensor_id;sensor_type;location;lat;lon;timestamp;P1;durP1;ratioP1;P2;durP2;ratioP2
16689;SDS011;8458;52.220;9.884;2023-06-19T00:00:57;3.47;;;3.38;;
16689;SDS011;8458;52.220;9.884;2023-06-19T00:03:23;3.63;;;3.42;;
16689;SDS011;8458;52.220;9.884;2023-06-19T00:05:50;3.33;;;3.13;;
16689;SDS011;8458;52.220;9.884;2023-06-19T00:08:16;3.28;;;3.10;;
16689;SDS011;8458;52.220;9.884;2023-06-19T00:10:43;3.38;;;3.17;;
16689;SDS011;8458;52.220;9.884;2023-06-19T00:13:09;3.50;;;3.40;;
16689;SDS011;8458;52.220;9.884;2023-06-19T00:15:36;4.13;;;3.80;;
16689;SDS011;8458;52.220;9.884;2023-06-19T00:18:03;4.32;;;4.07;;
16689;SDS011;8458;52.220;9.884;2023-06-19T00:20:31;4.03;;;3.83;;
16689;SDS011;8458;52.220;9.884;2023-06-19T00:23:00;4.45;;;4.25;;
16689;SDS011;8458;52.220;9.884;2023-06-19T00:25:26;3.95;;;3.75;;
16689;SDS011;8458;52.220;9.884;2023-06-19T00:27:53;3.97;;;3.77;;
16689;SDS011;8458;52.220;9.884;2023-06-19T00:30:19;3.65;;;3.45;;
16689;SDS011;8458;52.220;9.884;2023-06-19T00:32:46;4.20;;;3.97;;
16689;SDS011;8458;52.220;9.884;2023-06-19T00:35:16;3.77;;;3.57;;
16689;SDS011;8458;52.220;9.884;2023-06-19T00:37:43;3.40;;;3.28;;
16689;SDS011;8458;52.220;9.884;2023-06-19T00:40:12;3.83;;;3.63;;
16689;SDS011;8458;52.220;9.884;2023-06-19T00:42:45;3.97;;;3.78;;
16689;SDS011;8458;52.220;9.884;2023-06-19T00:45:12;3.88;;;3.67;;
16689;SDS011;8458;52.220;9.884;2023-06-19T00:47:38;4.23;;;3.93;;
16689;SDS011;8458;52.220;9.884;2023-06-19T00:50:05;3.70;;;3.50;;
16689;SDS011;8458;52.220;9.884;2023-06-19T00:52:34;3.92;;;3.70;;
16689;SDS011;8458;52.220;9.884;2023-06-19T00:55:00;3.72;;;3.53;;
16689;SDS011;8458;52.220;9.884;2023-06-19T00:57:28;4.17;;;3.97;;
16689;SDS011;8458;52.220;9.884;2023-06-19T00:59:55;3.90;;;3.70;;
16689;SDS011;8458;52.220;9.884;2023-06-19T01:02:22;3.90;;;3.65;;
16689;SDS011;8458;52.220;9.884;2023-06-19T01:04:49;3.90;;;3.70;;
16689;SDS011;8458;52.220;9.884;2023-06-19T01:07:17;3.83;;;3.63;;
16689;SDS011;8458;52.220;9.884;2023-06-19T01:09:56;3.73;;;3.57;;
16689;SDS011;8458;52.220;9.884;2023-06-19T01:12:28;4.45;;;4.15;;
16689;SDS011;8458;52.220;9.884;2023-06-19T01:14:57;3.60;;;3.50;;
16689;SDS011;8458;52.220;9.884;2023-06-19T01:17:25;3.92;;;3.72;;
16689;SDS011;8458;52.220;9.884;2023-06-19T01:19:53;4.10;;;3.90;;
16689;SDS011;8458;52.220;9.884;2023-06-19T01:22:28;4.07;;;3.70;;
16689;SDS011;8458;52.220;9.884;2023-06-19T01:24:54;3.97;;;3.67;;
16689;SDS011;8458;52.220;9.884;2023-06-19T01:27:21;3.83;;;3.63;;
16689;SDS011;8458;52.220;9.884;2023-06-19T01:29:50;3.67;;;3.47;;
16689;SDS011;8458;52.220;9.884;2023-06-19T01:32:19;4.00;;;3.80;;
16689;SDS011;8458;52.220;9.884;2023-06-19T01:34:49;3.90;;;3.70;;
16689;SDS011;8458;52.220;9.884;2023-06-19T01:37:18;3.83;;;3.63;;
16689;SDS011;8458;52.220;9.884;2023-06-19T01:39:47;4.20;;;3.93;;
16689;SDS011;8458;52.220;9.884;2023-06-19T01:42:14;4.43;;;4.07;;
16689;SDS011;8458;52.220;9.884;2023-06-19T01:44:41;3.90;;;3.70;;
16689;SDS011;8458;52.220;9.884;2023-06-19T01:47:09;4.10;;;3.90;;
16689;SDS011;8458;52.220;9.884;2023-06-19T01:49:36;3.75;;;3.55;;
16689;SDS011;8458;52.220;9.884;2023-06-19T01:52:03;4.50;;;4.20;;
16689;SDS011;8458;52.220;9.884;2023-06-19T01:54:30;3.93;;;3.73;;
16689;SDS011;8458;52.220;9.884;2023-06-19T01:56:58;4.03;;;3.83;;
16689;SDS011;8458;52.220;9.884;2023-06-19T01:59:24;3.87;;;3.67;;
16689;SDS011;8458;52.220;9.884;2023-06-19T02:01:51;4.03;;;3.77;;
16689;SDS011;8458;52.220;9.884;2023-06-19T02:04:17;4.00;;;3.80;;
16689;SDS011;8458;52.220;9.884;2023-06-19T02:06:44;4.43;;;4.13;;
16689;SDS011;8458;52.220;9.884;2023-06-19T02:09:10;4.77;;;4.40;;
16689;SDS011;8458;52.220;9.884;2023-06-19T02:11:37;3.73;;;3.53;;
16689;SDS011;8458;52.220;9.884;2023-06-19T02:14:05;4.13;;;3.93;;
16689;SDS011;8458;52.220;9.884;2023-06-19T02:16:31;4.50;;;4.20;;
16689;SDS011;8458;52.220;9.884;2023-06-19T02:18:57;3.93;;;3.73;;
16689;SDS011;8458;52.220;9.884;2023-06-19T02:21:25;3.77;;;3.57;;
16689;SDS011;8458;52.220;9.884;2023-06-19T02:23:53;4.17;;;3.97;;
16689;SDS011;8458;52.220;9.884;2023-06-19T02:26:19;4.20;;;4.00;;
16689;SDS011;8458;52.220;9.884;2023-06-19T02:28:46;4.07;;;3.87;;
16689;SDS011;8458;52.220;9.884;2023-06-19T02:31:14;4.10;;;3.90;;
16689;SDS011;8458;52.220;9.884;2023-06-19T02:33:40;4.10;;;3.80;;
16689;SDS011;8458;52.220;9.884;2023-06-19T02:36:07;4.73;;;4.53;;
16689;SDS011;8458;52.220;9.884;2023-06-19T02:38:34;4.47;;;4.07;;
16689;SDS011;8458;52.220;9.884;2023-06-19T02:41:00;3.93;;;3.73;;
16689;SDS011;8458;52.220;9.884;2023-06-19T02:43:27;4.30;;;4.00;;
16689;SDS011;8458;52.220;9.884;2023-06-19T02:45:54;4.50;;;4.20;;
16689;SDS011;8458;52.220;9.884;2023-06-19T02:48:21;4.43;;;4.10;;
16689;SDS011;8458;52.220;9.884;2023-06-19T02:50:48;4.20;;;4.00;;
16689;SDS011;8458;52.220;9.884;2023-06-19T02:53:15;3.80;;;3.60;;
16689;SDS011;8458;52.220;9.884;2023-06-19T02:55:41;4.70;;;4.30;;
16689;SDS011;8458;52.220;9.884;2023-06-19T02:58:08;3.97;;;3.77;;
16689;SDS011;8458;52.220;9.884;2023-06-19T03:00:35;4.17;;;3.87;;
16689;SDS011;8458;52.220;9.884;2023-06-19T03:03:02;4.20;;;3.90;;
16689;SDS011;8458;52.220;9.884;2023-06-19T03:05:30;4.33;;;4.03;;
16689;SDS011;8458;52.220;9.884;2023-06-19T03:07:56;4.67;;;4.47;;
16689;SDS011;8458;52.220;9.884;2023-06-19T03:10:23;4.17;;;3.87;;
16689;SDS011;8458;52.220;9.884;2023-06-19T03:12:49;4.70;;;4.40;;
16689;SDS011;8458;52.220;9.884;2023-06-19T03:15:16;4.20;;;4.00;;
16689;SDS011;8458;52.220;9.884;2023-06-19T03:17:43;4.00;;;3.80;;
16689;SDS011;8458;52.220;9.884;2023-06-19T03:20:10;4.13;;;3.83;;
16689;SDS011;8458;52.220;9.884;2023-06-19T03:22:39;4.23;;;3.97;;
16689;SDS011;8458;52.220;9.884;2023-06-19T03:25:06;4.83;;;4.60;;
16689;SDS011;8458;52.220;9.884;2023-06-19T03:27:34;4.27;;;4.07;;
16689;SDS011;8458;52.220;9.884;2023-06-19T03:30:01;4.67;;;4.33;;
16689;SDS011;8458;52.220;9.884;2023-06-19T03:32:31;4.63;;;4.40;;
16689;SDS011;8458;52.220;9.884;2023-06-19T03:34:57;4.67;;;4.33;;
16689;SDS011;8458;52.220;9.884;2023-06-19T03:37:24;4.43;;;4.17;;
16689;SDS011;8458;52.220;9.884;2023-06-19T03:39:52;4.40;;;4.10;;
16689;SDS011;8458;52.220;9.884;2023-06-19T03:42:18;4.00;;;3.80;;
16689;SDS011;8458;52.220;9.884;2023-06-19T03:44:45;4.10;;;3.90;;
16689;SDS011;8458;52.220;9.884;2023-06-19T03:47:11;4.43;;;4.13;;
16689;SDS011;8458;52.220;9.884;2023-06-19T03:49:37;4.30;;;4.00;;
16689;SDS011;8458;52.220;9.884;2023-06-19T03:52:04;3.90;;;3.80;;
16689;SDS011;8458;52.220;9.884;2023-06-19T03:54:31;4.47;;;4.17;;
16689;SDS011;8458;52.220;9.884;2023-06-19T03:56:59;4.10;;;3.90;;
16689;SDS011;8458;52.220;9.884;2023-06-19T03:59:25;4.30;;;4.00;;
16689;SDS011;8458;52.220;9.884;2023-06-19T04:01:52;4.10;;;3.80;;
16689;SDS011;8458;52.220;9.884;2023-06-19T04:04:18;4.17;;;3.97;;
16689;SDS011;8458;52.220;9.884;2023-06-19T04:06:45;4.27;;;4.07;;
16689;SDS011;8458;52.220;9.884;2023-06-19T04:09:11;3.77;;;3.63;;
16689;SDS011;8458;52.220;9.884;2023-06-19T04:11:38;3.80;;;3.50;;
16689;SDS011;8458;52.220;9.884;2023-06-19T04:14:06;3.80;;;3.57;;
16689;SDS011;8458;52.220;9.884;2023-06-19T04:16:32;4.43;;;4.03;;
16689;SDS011;8458;52.220;9.884;2023-06-19T04:18:59;4.77;;;4.30;;
16689;SDS011;8458;52.220;9.884;2023-06-19T04:21:25;5.60;;;4.80;;
16689;SDS011;8458;52.220;9.884;2023-06-19T04:23:52;6.43;;;5.10;;
16689;SDS011;8458;52.220;9.884;2023-06-19T04:26:18;5.83;;;5.00;;
16689;SDS011;8458;52.220;9.884;2023-06-19T04:28:46;7.07;;;5.00;;
16689;SDS011;8458;52.220;9.884;2023-06-19T04:31:14;5.40;;;5.00;;
16689;SDS011;8458;52.220;9.884;2023-06-19T04:33:43;6.20;;;4.50;;
16689;SDS011;8458;52.220;9.884;2023-06-19T04:36:13;7.07;;;4.40;;
16689;SDS011;8458;52.220;9.884;2023-06-19T04:38:39;4.60;;;4.30;;
16689;SDS011;8458;52.220;9.884;2023-06-19T04:41:06;5.80;;;4.27;;
16689;SDS011;8458;52.220;9.884;2023-06-19T04:43:32;4.90;;;4.50;;
16689;SDS011;8458;52.220;9.884;2023-06-19T04:45:59;4.90;;;4.50;;
16689;SDS011;8458;52.220;9.884;2023-06-19T04:48:30;4.27;;;3.97;;
16689;SDS011;8458;52.220;9.884;2023-06-19T04:50:56;4.67;;;4.43;;
16689;SDS011;8458;52.220;9.884;2023-06-19T04:53:26;4.90;;;4.50;;
16689;SDS011;8458;52.220;9.884;2023-06-19T04:55:52;4.67;;;4.37;;
16689;SDS011;8458;52.220;9.884;2023-06-19T04:58:20;4.10;;;3.90;;
16689;SDS011;8458;52.220;9.884;2023-06-19T05:00:47;4.73;;;4.43;;
16689;SDS011;8458;52.220;9.884;2023-06-19T05:03:16;4.50;;;4.10;;
16689;SDS011;8458;52.220;9.884;2023-06-19T05:05:44;4.77;;;4.40;;
16689;SDS011;8458;52.220;9.884;2023-06-19T05:08:10;5.00;;;4.60;;
16689;SDS011;8458;52.220;9.884;2023-06-19T05:10:38;5.73;;;5.23;;
16689;SDS011;8458;52.220;9.884;2023-06-19T05:13:04;5.03;;;4.57;;
16689;SDS011;8458;52.220;9.884;2023-06-19T05:15:31;4.90;;;4.47;;
16689;SDS011;8458;52.220;9.884;2023-06-19T05:17:57;4.60;;;4.30;;
16689;SDS011;8458;52.220;9.884;2023-06-19T05:20:23;4.73;;;4.13;;
16689;SDS011;8458;52.220;9.884;2023-06-19T05:22:51;6.67;;;4.60;;
16689;SDS011;8458;52.220;9.884;2023-06-19T05:25:18;4.90;;;4.37;;
16689;SDS011;8458;52.220;9.884;2023-06-19T05:27:44;4.70;;;4.30;;
16689;SDS011;8458;52.220;9.884;2023-06-19T05:30:11;6.60;;;4.80;;
16689;SDS011;8458;52.220;9.884;2023-06-19T05:32:38;5.57;;;5.00;;
16689;SDS011;8458;52.220;9.884;2023-06-19T05:35:05;5.37;;;4.87;;
16689;SDS011;8458;52.220;9.884;2023-06-19T05:37:32;4.97;;;4.57;;
16689;SDS011;8458;52.220;9.884;2023-06-19T05:40:00;4.80;;;4.40;;
16689;SDS011;8458;52.220;9.884;2023-06-19T05:42:26;4.90;;;4.50;;
16689;SDS011;8458;52.220;9.884;2023-06-19T05:44:53;5.00;;;4.60;;
16689;SDS011;8458;52.220;9.884;2023-06-19T05:47:19;10.93;;;5.03;;
16689;SDS011;8458;52.220;9.884;2023-06-19T05:49:46;10.23;;;4.47;;
16689;SDS011;8458;52.220;9.884;2023-06-19T05:52:13;6.30;;;4.70;;
16689;SDS011;8458;52.220;9.884;2023-06-19T05:54:40;5.10;;;4.70;;
16689;SDS011;8458;52.220;9.884;2023-06-19T05:57:08;5.50;;;5.00;;
16689;SDS011;8458;52.220;9.884;2023-06-19T05:59:34;4.87;;;4.57;;
16689;SDS011;8458;52.220;9.884;2023-06-19T06:02:01;4.93;;;4.53;;
16689;SDS011;8458;52.220;9.884;2023-06-19T06:04:28;5.13;;;4.83;;
16689;SDS011;8458;52.220;9.884;2023-06-19T06:06:55;5.43;;;5.13;;
16689;SDS011;8458;52.220;9.884;2023-06-19T06:09:22;5.23;;;5.00;;
16689;SDS011;8458;52.220;9.884;2023-06-19T06:11:48;5.20;;;4.90;;
16689;SDS011;8458;52.220;9.884;2023-06-19T06:14:16;5.07;;;4.67;;
16689;SDS011;8458;52.220;9.884;2023-06-19T06:16:43;5.10;;;4.80;;
16689;SDS011;8458;52.220;9.884;2023-06-19T06:19:09;5.57;;;5.27;;
16689;SDS011;8458;52.220;9.884;2023-06-19T06:21:36;5.00;;;4.80;;
16689;SDS011;8458;52.220;9.884;2023-06-19T06:24:02;5.30;;;4.90;;
16689;SDS011;8458;52.220;9.884;2023-06-19T06:26:29;4.97;;;4.50;;
16689;SDS011;8458;52.220;9.884;2023-06-19T06:28:56;4.87;;;4.57;;
16689;SDS011;8458;52.220;9.884;2023-06-19T06:31:24;5.93;;;5.43;;
16689;SDS011;8458;52.220;9.884;2023-06-19T06:33:51;5.50;;;5.07;;
16689;SDS011;8458;52.220;9.884;2023-06-19T06:36:17;5.83;;;5.50;;
16689;SDS011;8458;52.220;9.884;2023-06-19T06:38:44;5.50;;;5.20;;
16689;SDS011;8458;52.220;9.884;2023-06-19T06:41:11;5.80;;;5.40;;
16689;SDS011;8458;52.220;9.884;2023-06-19T06:43:37;5.80;;;5.40;;
16689;SDS011;8458;52.220;9.884;2023-06-19T06:46:05;5.10;;;4.80;;
16689;SDS011;8458;52.220;9.884;2023-06-19T06:48:33;5.60;;;5.30;;
16689;SDS011;8458;52.220;9.884;2023-06-19T06:50:59;5.27;;;4.87;;
16689;SDS011;8458;52.220;9.884;2023-06-19T06:53:26;6.20;;;5.47;;
16689;SDS011;8458;52.220;9.884;2023-06-19T06:55:54;8.20;;;6.13;;
16689;SDS011;8458;52.220;9.884;2023-06-19T06:58:20;10.33;;;6.07;;
16689;SDS011;8458;52.220;9.884;2023-06-19T07:00:47;11.90;;;6.10;;
16689;SDS011;8458;52.220;9.884;2023-06-19T07:03:15;5.97;;;5.53;;
16689;SDS011;8458;52.220;9.884;2023-06-19T07:05:44;5.70;;;5.30;;
16689;SDS011;8458;52.220;9.884;2023-06-19T07:08:11;6.07;;;5.47;;
16689;SDS011;8458;52.220;9.884;2023-06-19T07:10:37;6.17;;;5.73;;
16689;SDS011;8458;52.220;9.884;2023-06-19T07:13:04;7.10;;;6.17;;
16689;SDS011;8458;52.220;9.884;2023-06-19T07:15:30;5.53;;;5.03;;
16689;SDS011;8458;52.220;9.884;2023-06-19T07:17:57;6.33;;;5.77;;
16689;SDS011;8458;52.220;9.884;2023-06-19T07:20:23;5.90;;;5.33;;
16689;SDS011;8458;52.220;9.884;2023-06-19T07:22:51;6.03;;;5.53;;
16689;SDS011;8458;52.220;9.884;2023-06-19T07:25:18;6.33;;;5.83;;
16689;SDS011;8458;52.220;9.884;2023-06-19T07:27:45;5.53;;;5.20;;
16689;SDS011;8458;52.220;9.884;2023-06-19T07:30:12;5.38;;;5.07;;
16689;SDS011;8458;52.220;9.884;2023-06-19T07:32:39;5.37;;;5.07;;
16689;SDS011;8458;52.220;9.884;2023-06-19T07:35:05;5.47;;;5.07;;
16689;SDS011;8458;52.220;9.884;2023-06-19T07:37:33;5.28;;;4.97;;
16689;SDS011;8458;52.220;9.884;2023-06-19T07:40:01;5.82;;;5.43;;
16689;SDS011;8458;52.220;9.884;2023-06-19T07:42:27;5.53;;;5.17;;
16689;SDS011;8458;52.220;9.884;2023-06-19T07:44:54;5.57;;;5.15;;
16689;SDS011;8458;52.220;9.884;2023-06-19T07:47:20;5.88;;;5.47;;
16689;SDS011;8458;52.220;9.884;2023-06-19T07:49:47;5.95;;;5.60;;
16689;SDS011;8458;52.220;9.884;2023-06-19T07:52:13;4.93;;;4.72;;
16689;SDS011;8458;52.220;9.884;2023-06-19T07:54:53;5.40;;;5.10;;
16689;SDS011;8458;52.220;9.884;2023-06-19T07:57:22;5.20;;;4.90;;
16689;SDS011;8458;52.220;9.884;2023-06-19T07:59:50;5.30;;;5.00;;
16689;SDS011;8458;52.220;9.884;2023-06-19T08:02:17;5.45;;;5.18;;
16689;SDS011;8458;52.220;9.884;2023-06-19T08:04:44;5.43;;;5.13;;
16689;SDS011;8458;52.220;9.884;2023-06-19T08:07:11;5.43;;;4.80;;
16689;SDS011;8458;52.220;9.884;2023-06-19T08:09:38;5.80;;;5.50;;
16689;SDS011;8458;52.220;9.884;2023-06-19T08:12:05;5.72;;;5.43;;
16689;SDS011;8458;52.220;9.884;2023-06-19T08:14:33;5.53;;;5.28;;
16689;SDS011;8458;52.220;9.884;2023-06-19T08:17:00;6.20;;;5.80;;
16689;SDS011;8458;52.220;9.884;2023-06-19T08:19:26;4.97;;;4.78;;
16689;SDS011;8458;52.220;9.884;2023-06-19T08:21:53;5.20;;;4.97;;
16689;SDS011;8458;52.220;9.884;2023-06-19T08:24:19;5.10;;;4.80;;
16689;SDS011;8458;52.220;9.884;2023-06-19T08:26:46;4.93;;;4.63;;
16689;SDS011;8458;52.220;9.884;2023-06-19T08:29:16;4.80;;;4.60;;
16689;SDS011;8458;52.220;9.884;2023-06-19T08:31:44;5.22;;;4.90;;
16689;SDS011;8458;52.220;9.884;2023-06-19T08:34:10;5.15;;;4.85;;
16689;SDS011;8458;52.220;9.884;2023-06-19T08:36:37;5.18;;;4.88;;
16689;SDS011;8458;52.220;9.884;2023-06-19T08:39:03;5.28;;;4.97;;
16689;SDS011;8458;52.220;9.884;2023-06-19T08:41:30;5.28;;;4.97;;
16689;SDS011;8458;52.220;9.884;2023-06-19T08:43:56;5.60;;;5.30;;
16689;SDS011;8458;52.220;9.884;2023-06-19T08:46:23;5.13;;;4.82;;
16689;SDS011;8458;52.220;9.884;2023-06-19T08:48:51;5.25;;;5.00;;
16689;SDS011;8458;52.220;9.884;2023-06-19T08:51:20;4.95;;;4.75;;
16689;SDS011;8458;52.220;9.884;2023-06-19T08:53:47;12.43;;;5.25;;
16689;SDS011;8458;52.220;9.884;2023-06-19T08:56:16;4.90;;;4.68;;
16689;SDS011;8458;52.220;9.884;2023-06-19T08:58:42;5.35;;;4.95;;
16689;SDS011;8458;52.220;9.884;2023-06-19T09:01:09;4.90;;;4.60;;
16689;SDS011;8458;52.220;9.884;2023-06-19T09:03:35;4.75;;;4.55;;
16689;SDS011;8458;52.220;9.884;2023-06-19T09:06:04;5.10;;;4.88;;
16689;SDS011;8458;52.220;9.884;2023-06-19T09:08:33;5.10;;;4.80;;
16689;SDS011;8458;52.220;9.884;2023-06-19T09:10:59;4.70;;;4.32;;
16689;SDS011;8458;52.220;9.884;2023-06-19T09:13:28;4.50;;;4.20;;
16689;SDS011;8458;52.220;9.884;2023-06-19T09:15:59;4.90;;;4.60;;
16689;SDS011;8458;52.220;9.884;2023-06-19T09:18:28;5.32;;;5.03;;
16689;SDS011;8458;52.220;9.884;2023-06-19T09:20:56;4.75;;;4.55;;
16689;SDS011;8458;52.220;9.884;2023-06-19T09:23:24;5.15;;;4.85;;
16689;SDS011;8458;52.220;9.884;2023-06-19T09:25:51;4.90;;;4.70;;
16689;SDS011;8458;52.220;9.884;2023-06-19T09:28:20;4.60;;;4.30;;
16689;SDS011;8458;52.220;9.884;2023-06-19T09:30:54;4.65;;;4.35;;
16689;SDS011;8458;52.220;9.884;2023-06-19T09:33:22;4.28;;;4.07;;
16689;SDS011;8458;52.220;9.884;2023-06-19T09:35:49;4.00;;;3.80;;
16689;SDS011;8458;52.220;9.884;2023-06-19T09:38:16;4.40;;;4.20;;
16689;SDS011;8458;52.220;9.884;2023-06-19T09:40:45;3.92;;;3.72;;
16689;SDS011;8458;52.220;9.884;2023-06-19T09:43:14;4.22;;;4.03;;
16689;SDS011;8458;52.220;9.884;2023-06-19T09:45:45;4.10;;;3.90;;
16689;SDS011;8458;52.220;9.884;2023-06-19T09:48:18;4.00;;;3.70;;
16689;SDS011;8458;52.220;9.884;2023-06-19T09:50:46;4.00;;;3.80;;
16689;SDS011;8458;52.220;9.884;2023-06-19T09:53:15;4.07;;;3.88;;
16689;SDS011;8458;52.220;9.884;2023-06-19T09:55:43;3.63;;;3.42;;
16689;SDS011;8458;52.220;9.884;2023-06-19T09:58:12;4.45;;;4.05;;
16689;SDS011;8458;52.220;9.884;2023-06-19T10:00:39;4.47;;;4.28;;
16689;SDS011;8458;52.220;9.884;2023-06-19T10:03:10;4.20;;;4.00;;
16689;SDS011;8458;52.220;9.884;2023-06-19T10:05:38;4.20;;;4.00;;
16689;SDS011;8458;52.220;9.884;2023-06-19T10:08:05;4.30;;;4.00;;
16689;SDS011;8458;52.220;9.884;2023-06-19T10:10:33;4.40;;;4.10;;
16689;SDS011;8458;52.220;9.884;2023-06-19T10:13:11;3.88;;;3.67;;
16689;SDS011;8458;52.220;9.884;2023-06-19T10:15:40;4.15;;;3.95;;
16689;SDS011;8458;52.220;9.884;2023-06-19T10:18:12;4.50;;;4.30;;
16689;SDS011;8458;52.220;9.884;2023-06-19T10:20:41;3.97;;;3.78;;
16689;SDS011;8458;52.220;9.884;2023-06-19T10:23:10;4.57;;;4.28;;
16689;SDS011;8458;52.220;9.884;2023-06-19T10:25:38;4.28;;;4.07;;
16689;SDS011;8458;52.220;9.884;2023-06-19T10:28:17;4.05;;;3.85;;
16689;SDS011;8458;52.220;9.884;2023-06-19T10:30:44;4.38;;;4.07;;
16689;SDS011;8458;52.220;9.884;2023-06-19T10:33:11;4.10;;;3.90;;
16689;SDS011;8458;52.220;9.884;2023-06-19T10:35:38;4.28;;;3.97;;
16689;SDS011;8458;52.220;9.884;2023-06-19T10:38:05;4.32;;;4.13;;
16689;SDS011;8458;52.220;9.884;2023-06-19T10:40:32;4.45;;;4.15;;
16689;SDS011;8458;52.220;9.884;2023-06-19T10:42:59;4.25;;;4.05;;
16689;SDS011;8458;52.220;9.884;2023-06-19T10:45:26;5.30;;;4.78;;
16689;SDS011;8458;52.220;9.884;2023-06-19T10:47:54;4.22;;;4.03;;
16689;SDS011;8458;52.220;9.884;2023-06-19T10:50:21;4.53;;;4.32;;
16689;SDS011;8458;52.220;9.884;2023-06-19T10:52:48;4.38;;;4.18;;
16689;SDS011;8458;52.220;9.884;2023-06-19T10:55:20;4.68;;;4.47;;
16689;SDS011;8458;52.220;9.884;2023-06-19T10:57:47;4.65;;;4.45;;
16689;SDS011;8458;52.220;9.884;2023-06-19T11:00:22;4.43;;;4.22;;
16689;SDS011;8458;52.220;9.884;2023-06-19T11:02:50;4.22;;;4.03;;
16689;SDS011;8458;52.220;9.884;2023-06-19T11:05:19;4.72;;;4.32;;
16689;SDS011;8458;52.220;9.884;2023-06-19T11:07:50;3.90;;;3.70;;
16689;SDS011;8458;52.220;9.884;2023-06-19T11:10:18;4.10;;;3.75;;
16689;SDS011;8458;52.220;9.884;2023-06-19T11:12:45;3.72;;;3.63;;
16689;SDS011;8458;52.220;9.884;2023-06-19T11:15:12;4.20;;;3.90;;
16689;SDS011;8458;52.220;9.884;2023-06-19T11:17:38;3.40;;;3.20;;
16689;SDS011;8458;52.220;9.884;2023-06-19T11:20:10;3.30;;;3.10;;
16689;SDS011;8458;52.220;9.884;2023-06-19T11:22:38;3.15;;;2.88;;
16689;SDS011;8458;52.220;9.884;2023-06-19T11:25:06;3.20;;;3.03;;
16689;SDS011;8458;52.220;9.884;2023-06-19T11:27:33;3.20;;;3.00;;
16689;SDS011;8458;52.220;9.884;2023-06-19T11:30:03;2.70;;;2.60;;
16689;SDS011;8458;52.220;9.884;2023-06-19T11:32:33;2.90;;;2.70;;
16689;SDS011;8458;52.220;9.884;2023-06-19T11:35:05;2.83;;;2.45;;
16689;SDS011;8458;52.220;9.884;2023-06-19T11:37:35;2.22;;;2.13;;
16689;SDS011;8458;52.220;9.884;2023-06-19T11:40:01;2.22;;;2.13;;
16689;SDS011;8458;52.220;9.884;2023-06-19T11:42:43;2.65;;;2.55;;
16689;SDS011;8458;52.220;9.884;2023-06-19T11:45:10;2.58;;;2.47;;
16689;SDS011;8458;52.220;9.884;2023-06-19T11:47:37;2.63;;;2.47;;
16689;SDS011;8458;52.220;9.884;2023-06-19T11:50:04;2.70;;;2.50;;
16689;SDS011;8458;52.220;9.884;2023-06-19T11:52:31;2.90;;;2.80;;
16689;SDS011;8458;52.220;9.884;2023-06-19T11:54:59;3.13;;;3.00;;
16689;SDS011;8458;52.220;9.884;2023-06-19T11:57:26;2.60;;;2.50;;
16689;SDS011;8458;52.220;9.884;2023-06-19T11:59:53;2.58;;;2.42;;
16689;SDS011;8458;52.220;9.884;2023-06-19T12:02:19;2.97;;;2.78;;
16689;SDS011;8458;52.220;9.884;2023-06-19T12:04:46;2.88;;;2.58;;
16689;SDS011;8458;52.220;9.884;2023-06-19T12:07:12;2.40;;;2.30;;
16689;SDS011;8458;52.220;9.884;2023-06-19T12:09:40;2.50;;;2.33;;
16689;SDS011;8458;52.220;9.884;2023-06-19T12:12:09;2.10;;;2.00;;
16689;SDS011;8458;52.220;9.884;2023-06-19T12:14:36;1.98;;;1.88;;
16689;SDS011;8458;52.220;9.884;2023-06-19T12:17:04;1.73;;;1.63;;
16689;SDS011;8458;52.220;9.884;2023-06-19T12:19:31;1.95;;;1.85;;
16689;SDS011;8458;52.220;9.884;2023-06-19T12:21:57;1.95;;;1.70;;
16689;SDS011;8458;52.220;9.884;2023-06-19T12:24:24;1.50;;;1.42;;
16689;SDS011;8458;52.220;9.884;2023-06-19T12:26:50;2.17;;;1.90;;
16689;SDS011;8458;52.220;9.884;2023-06-19T12:29:18;1.83;;;1.70;;
16689;SDS011;8458;52.220;9.884;2023-06-19T12:31:45;1.83;;;1.73;;
16689;SDS011;8458;52.220;9.884;2023-06-19T12:34:12;1.67;;;1.58;;
16689;SDS011;8458;52.220;9.884;2023-06-19T12:36:38;2.95;;;1.35;;
16689;SDS011;8458;52.220;9.884;2023-06-19T12:39:05;1.60;;;1.50;;
16689;SDS011;8458;52.220;9.884;2023-06-19T12:41:39;2.20;;;2.10;;
16689;SDS011;8458;52.220;9.884;2023-06-19T12:44:06;1.90;;;1.80;;
16689;SDS011;8458;52.220;9.884;2023-06-19T12:46:33;1.98;;;1.67;;
16689;SDS011;8458;52.220;9.884;2023-06-19T12:49:00;1.98;;;1.88;;
16689;SDS011;8458;52.220;9.884;2023-06-19T12:51:26;1.48;;;1.38;;
16689;SDS011;8458;52.220;9.884;2023-06-19T12:53:53;1.65;;;1.40;;
16689;SDS011;8458;52.220;9.884;2023-06-19T12:56:19;1.70;;;1.50;;
16689;SDS011;8458;52.220;9.884;2023-06-19T12:58:46;1.50;;;1.50;;
16689;SDS011;8458;52.220;9.884;2023-06-19T13:01:12;1.70;;;1.60;;
16689;SDS011;8458;52.220;9.884;2023-06-19T13:03:40;1.50;;;1.40;;
16689;SDS011;8458;52.220;9.884;2023-06-19T13:06:06;1.50;;;1.40;;
16689;SDS011;8458;52.220;9.884;2023-06-19T13:08:33;1.65;;;1.52;;
16689;SDS011;8458;52.220;9.884;2023-06-19T13:10:59;1.60;;;1.50;;
16689;SDS011;8458;52.220;9.884;2023-06-19T13:13:26;1.33;;;1.23;;
16689;SDS011;8458;52.220;9.884;2023-06-19T13:15:53;1.63;;;1.52;;
16689;SDS011;8458;52.220;9.884;2023-06-19T13:18:19;1.60;;;1.50;;
16689;SDS011;8458;52.220;9.884;2023-06-19T13:20:47;1.48;;;1.48;;
16689;SDS011;8458;52.220;9.884;2023-06-19T13:23:14;1.70;;;1.60;;
16689;SDS011;8458;52.220;9.884;2023-06-19T13:25:41;1.73;;;1.63;;
16689;SDS011;8458;52.220;9.884;2023-06-19T13:28:07;1.65;;;1.55;;
16689;SDS011;8458;52.220;9.884;2023-06-19T13:30:34;2.20;;;1.52;;
16689;SDS011;8458;52.220;9.884;2023-06-19T13:33:00;1.67;;;1.58;;
16689;SDS011;8458;52.220;9.884;2023-06-19T13:35:27;1.70;;;1.60;;
16689;SDS011;8458;52.220;9.884;2023-06-19T13:37:56;1.80;;;1.70;;
16689;SDS011;8458;52.220;9.884;2023-06-19T13:40:24;1.60;;;1.50;;
16689;SDS011;8458;52.220;9.884;2023-06-19T13:42:51;2.15;;;1.80;;
16689;SDS011;8458;52.220;9.884;2023-06-19T13:45:17;1.60;;;1.50;;
16689;SDS011;8458;52.220;9.884;2023-06-19T13:47:44;1.80;;;1.70;;
16689;SDS011;8458;52.220;9.884;2023-06-19T13:50:10;2.22;;;2.08;;
16689;SDS011;8458;52.220;9.884;2023-06-19T13:52:42;1.90;;;1.80;;
16689;SDS011;8458;52.220;9.884;2023-06-19T13:55:11;2.10;;;1.90;;
16689;SDS011;8458;52.220;9.884;2023-06-19T13:57:38;2.03;;;1.83;;
16689;SDS011;8458;52.220;9.884;2023-06-19T14:00:05;2.65;;;1.70;;
16689;SDS011;8458;52.220;9.884;2023-06-19T14:02:33;2.03;;;1.92;;
16689;SDS011;8458;52.220;9.884;2023-06-19T14:04:59;2.10;;;2.00;;
16689;SDS011;8458;52.220;9.884;2023-06-19T14:07:26;2.08;;;1.90;;
16689;SDS011;8458;52.220;9.884;2023-06-19T14:09:52;2.30;;;2.20;;
16689;SDS011;8458;52.220;9.884;2023-06-19T14:12:20;2.40;;;2.30;;
16689;SDS011;8458;52.220;9.884;2023-06-19T14:14:47;2.05;;;1.95;;
16689;SDS011;8458;52.220;9.884;2023-06-19T14:17:14;2.40;;;2.25;;
16689;SDS011;8458;52.220;9.884;2023-06-19T14:19:40;1.83;;;1.73;;
16689;SDS011;8458;52.220;9.884;2023-06-19T14:22:06;2.00;;;1.90;;
16689;SDS011;8458;52.220;9.884;2023-06-19T14:24:33;1.90;;;1.80;;
16689;SDS011;8458;52.220;9.884;2023-06-19T14:26:59;2.20;;;2.00;;
16689;SDS011;8458;52.220;9.884;2023-06-19T14:29:27;2.00;;;1.90;;
16689;SDS011;8458;52.220;9.884;2023-06-19T14:31:54;1.70;;;1.60;;
16689;SDS011;8458;52.220;9.884;2023-06-19T14:34:20;1.73;;;1.63;;
16689;SDS011;8458;52.220;9.884;2023-06-19T14:36:46;1.83;;;1.73;;
16689;SDS011;8458;52.220;9.884;2023-06-19T14:39:13;1.95;;;1.70;;
16689;SDS011;8458;52.220;9.884;2023-06-19T14:41:40;1.80;;;1.70;;
16689;SDS011;8458;52.220;9.884;2023-06-19T14:44:06;2.10;;;2.00;;
16689;SDS011;8458;52.220;9.884;2023-06-19T14:46:34;2.47;;;1.80;;
16689;SDS011;8458;52.220;9.884;2023-06-19T14:49:04;2.30;;;2.20;;
16689;SDS011;8458;52.220;9.884;2023-06-19T14:51:31;2.10;;;2.00;;
16689;SDS011;8458;52.220;9.884;2023-06-19T14:53:57;2.13;;;1.95;;
16689;SDS011;8458;52.220;9.884;2023-06-19T14:56:23;2.25;;;2.15;;
16689;SDS011;8458;52.220;9.884;2023-06-19T14:58:50;2.38;;;2.28;;
16689;SDS011;8458;52.220;9.884;2023-06-19T15:01:16;2.15;;;2.05;;